sensor_id;sensor_type;location;lat;lon;timestamp;P1;durP1;ratioP1;P2;durP2;ratioP2
24335;SDS011;33098;52.400;16.880;2023-04-15T00:00:18;8.10;;;6.60;;
24335;SDS011;33098;52.400;16.880;2023-04-15T00:03:06;8.60;;;6.50;;
24335;SDS011;33098;52.400;16.880;2023-04-15T00:05:37;9.10;;;6.60;;
24335;SDS011;33098;52.400;16.880;2023-04-15T00:08:04;10.50;;;6.50;;
24335;SDS011;33098;52.400;16.880;2023-04-15T00:10:33;10.00;;;6.40;;
24335;SDS011;33098;52.400;16.880;2023-04-15T00:13:03;9.40;;;6.60;;
24335;SDS011;33098;52.400;16.880;2023-04-15T00:15:30;8.80;;;6.70;;
24335;SDS011;33098;52.400;16.880;2023-04-15T00:17:56;8.70;;;7.00;;
24335;SDS011;33098;52.400;16.880;2023-04-15T00:20:26;8.00;;;6.60;;
24335;SDS011;33098;52.400;16.880;2023-04-15T00:22:57;8.70;;;7.00;;
24335;SDS011;33098;52.400;16.880;2023-04-15T00:25:26;9.40;;;6.70;;
24335;SDS011;33098;52.400;16.880;2023-04-15T00:27:56;8.60;;;6.80;;
24335;SDS011;33098;52.400;16.880;2023-04-15T00:30:23;8.90;;;7.00;;
24335;SDS011;33098;52.400;16.880;2023-04-15T00:32:50;10.20;;;7.00;;
24335;SDS011;33098;52.400;16.880;2023-04-15T00:35:18;10.90;;;7.50;;
24335;SDS011;33098;52.400;16.880;2023-04-15T00:37:45;9.70;;;6.80;;
24335;SDS011;33098;52.400;16.880;2023-04-15T00:40:14;7.70;;;6.40;;
24335;SDS011;33098;52.400;16.880;2023-04-15T00:42:44;9.90;;;7.10;;
24335;SDS011;33098;52.400;16.880;2023-04-15T00:45:11;9.60;;;7.10;;
24335;SDS011;33098;52.400;16.880;2023-04-15T00:47:38;8.10;;;6.60;;
24335;SDS011;33098;52.400;16.880;2023-04-15T00:50:07;9.80;;;6.90;;
24335;SDS011;33098;52.400;16.880;2023-04-15T00:52:35;8.20;;;7.00;;
24335;SDS011;33098;52.400;16.880;2023-04-15T00:55:02;10.60;;;7.20;;
24335;SDS011;33098;52.400;16.880;2023-04-15T00:57:30;8.70;;;7.00;;
24335;SDS011;33098;52.400;16.880;2023-04-15T00:59:57;9.80;;;7.20;;
24335;SDS011;33098;52.400;16.880;2023-04-15T01:02:24;10.70;;;7.40;;
24335;SDS011;33098;52.400;16.880;2023-04-15T01:04:52;9.20;;;6.80;;
24335;SDS011;33098;52.400;16.880;2023-04-15T01:07:18;10.50;;;7.30;;
24335;SDS011;33098;52.400;16.880;2023-04-15T01:09:45;12.40;;;7.40;;
24335;SDS011;33098;52.400;16.880;2023-04-15T01:12:13;9.10;;;6.80;;
24335;SDS011;33098;52.400;16.880;2023-04-15T01:14:41;10.80;;;7.40;;
24335;SDS011;33098;52.400;16.880;2023-04-15T01:17:08;9.00;;;7.10;;
24335;SDS011;33098;52.400;16.880;2023-04-15T01:19:39;9.70;;;7.00;;
24335;SDS011;33098;52.400;16.880;2023-04-15T01:22:08;8.70;;;6.80;;
24335;SDS011;33098;52.400;16.880;2023-04-15T01:24:37;9.50;;;7.40;;
24335;SDS011;33098;52.400;16.880;2023-04-15T01:27:05;10.90;;;7.10;;
24335;SDS011;33098;52.400;16.880;2023-04-15T01:29:33;9.90;;;7.10;;
24335;SDS011;33098;52.400;16.880;2023-04-15T01:34:28;10.90;;;7.80;;
24335;SDS011;33098;52.400;16.880;2023-04-15T01:36:55;10.10;;;7.20;;
24335;SDS011;33098;52.400;16.880;2023-04-15T01:39:22;10.10;;;7.70;;
24335;SDS011;33098;52.400;16.880;2023-04-15T01:41:48;9.10;;;7.80;;
24335;SDS011;33098;52.400;16.880;2023-04-15T01:44:16;8.50;;;7.30;;
24335;SDS011;33098;52.400;16.880;2023-04-15T01:46:43;10.70;;;7.20;;
24335;SDS011;33098;52.400;16.880;2023-04-15T01:49:09;8.70;;;7.40;;
24335;SDS011;33098;52.400;16.880;2023-04-15T01:51:36;10.60;;;8.00;;
24335;SDS011;33098;52.400;16.880;2023-04-15T01:54:03;9.60;;;7.70;;
24335;SDS011;33098;52.400;16.880;2023-04-15T01:56:32;9.40;;;7.40;;
24335;SDS011;33098;52.400;16.880;2023-04-15T01:58:59;9.30;;;6.70;;
24335;SDS011;33098;52.400;16.880;2023-04-15T02:01:27;10.50;;;7.10;;
24335;SDS011;33098;52.400;16.880;2023-04-15T02:03:53;9.40;;;7.20;;
24335;SDS011;33098;52.400;16.880;2023-04-15T02:06:20;9.80;;;7.10;;
24335;SDS011;33098;52.400;16.880;2023-04-15T02:08:48;10.10;;;7.20;;
24335;SDS011;33098;52.400;16.880;2023-04-15T02:11:14;8.40;;;7.00;;
24335;SDS011;33098;52.400;16.880;2023-04-15T02:13:41;9.10;;;7.10;;
24335;SDS011;33098;52.400;16.880;2023-04-15T02:16:15;8.60;;;7.00;;
24335;SDS011;33098;52.400;16.880;2023-04-15T02:18:45;9.70;;;7.40;;
24335;SDS011;33098;52.400;16.880;2023-04-15T02:21:12;9.50;;;7.20;;
24335;SDS011;33098;52.400;16.880;2023-04-15T02:23:40;10.80;;;7.90;;
24335;SDS011;33098;52.400;16.880;2023-04-15T02:26:06;10.60;;;6.90;;
24335;SDS011;33098;52.400;16.880;2023-04-15T02:28:33;8.10;;;6.90;;
24335;SDS011;33098;52.400;16.880;2023-04-15T02:31:07;11.60;;;7.20;;
24335;SDS011;33098;52.400;16.880;2023-04-15T02:33:34;9.70;;;7.80;;
24335;SDS011;33098;52.400;16.880;2023-04-15T02:36:03;9.40;;;7.10;;
24335;SDS011;33098;52.400;16.880;2023-04-15T02:38:30;10.30;;;7.80;;
24335;SDS011;33098;52.400;16.880;2023-04-15T02:40:57;10.70;;;7.50;;
24335;SDS011;33098;52.400;16.880;2023-04-15T02:43:24;9.00;;;7.10;;
24335;SDS011;33098;52.400;16.880;2023-04-15T02:45:52;9.60;;;7.80;;
24335;SDS011;33098;52.400;16.880;2023-04-15T02:48:21;10.10;;;8.00;;
24335;SDS011;33098;52.400;16.880;2023-04-15T02:50:48;11.90;;;7.90;;
24335;SDS011;33098;52.400;16.880;2023-04-15T02:53:15;10.90;;;7.90;;
24335;SDS011;33098;52.400;16.880;2023-04-15T02:55:42;11.10;;;7.60;;
24335;SDS011;33098;52.400;16.880;2023-04-15T02:58:12;9.60;;;8.10;;
24335;SDS011;33098;52.400;16.880;2023-04-15T03:00:43;9.40;;;7.90;;
24335;SDS011;33098;52.400;16.880;2023-04-15T03:03:13;9.80;;;8.10;;
24335;SDS011;33098;52.400;16.880;2023-04-15T03:05:40;11.30;;;8.10;;
24335;SDS011;33098;52.400;16.880;2023-04-15T03:08:07;10.00;;;8.10;;
24335;SDS011;33098;52.400;16.880;2023-04-15T03:10:36;10.60;;;8.40;;
24335;SDS011;33098;52.400;16.880;2023-04-15T03:13:03;12.00;;;7.90;;
24335;SDS011;33098;52.400;16.880;2023-04-15T03:15:31;8.90;;;7.80;;
24335;SDS011;33098;52.400;16.880;2023-04-15T03:18:00;11.20;;;7.70;;
24335;SDS011;33098;52.400;16.880;2023-04-15T03:20:27;10.10;;;7.80;;
24335;SDS011;33098;52.400;16.880;2023-04-15T03:22:53;14.00;;;8.40;;
24335;SDS011;33098;52.400;16.880;2023-04-15T03:25:21;12.50;;;9.10;;
24335;SDS011;33098;52.400;16.880;2023-04-15T03:27:51;11.20;;;8.90;;
24335;SDS011;33098;52.400;16.880;2023-04-15T03:30:18;13.60;;;8.70;;
24335;SDS011;33098;52.400;16.880;2023-04-15T03:32:45;10.00;;;8.40;;
24335;SDS011;33098;52.400;16.880;2023-04-15T03:35:14;13.50;;;9.00;;
24335;SDS011;33098;52.400;16.880;2023-04-15T03:37:41;13.30;;;9.50;;
24335;SDS011;33098;52.400;16.880;2023-04-15T03:40:08;12.50;;;9.60;;
24335;SDS011;33098;52.400;16.880;2023-04-15T03:42:35;12.50;;;9.50;;
24335;SDS011;33098;52.400;16.880;2023-04-15T03:45:05;11.90;;;9.60;;
24335;SDS011;33098;52.400;16.880;2023-04-15T03:47:33;12.30;;;9.60;;
24335;SDS011;33098;52.400;16.880;2023-04-15T03:49:59;13.10;;;10.40;;
24335;SDS011;33098;52.400;16.880;2023-04-15T03:52:26;12.60;;;9.80;;
24335;SDS011;33098;52.400;16.880;2023-04-15T03:54:52;12.80;;;10.10;;
24335;SDS011;33098;52.400;16.880;2023-04-15T03:57:19;11.60;;;10.30;;
24335;SDS011;33098;52.400;16.880;2023-04-15T03:59:46;14.50;;;10.30;;
24335;SDS011;33098;52.400;16.880;2023-04-15T04:02:15;14.10;;;10.30;;
24335;SDS011;33098;52.400;16.880;2023-04-15T04:04:42;12.90;;;10.60;;
24335;SDS011;33098;52.400;16.880;2023-04-15T04:07:15;12.20;;;10.20;;
24335;SDS011;33098;52.400;16.880;2023-04-15T04:09:42;14.60;;;11.10;;
24335;SDS011;33098;52.400;16.880;2023-04-15T04:12:12;15.20;;;10.80;;
24335;SDS011;33098;52.400;16.880;2023-04-15T04:14:39;16.70;;;11.20;;
24335;SDS011;33098;52.400;16.880;2023-04-15T04:17:06;14.20;;;11.30;;
24335;SDS011;33098;52.400;16.880;2023-04-15T04:19:32;15.10;;;11.70;;
24335;SDS011;33098;52.400;16.880;2023-04-15T04:21:59;14.60;;;11.30;;
24335;SDS011;33098;52.400;16.880;2023-04-15T04:24:26;15.00;;;11.90;;
24335;SDS011;33098;52.400;16.880;2023-04-15T04:26:53;14.80;;;11.50;;
24335;SDS011;33098;52.400;16.880;2023-04-15T04:29:21;13.40;;;11.00;;
24335;SDS011;33098;52.400;16.880;2023-04-15T04:31:48;13.80;;;11.30;;
24335;SDS011;33098;52.400;16.880;2023-04-15T04:34:15;14.30;;;11.30;;
24335;SDS011;33098;52.400;16.880;2023-04-15T04:36:42;15.60;;;11.80;;
24335;SDS011;33098;52.400;16.880;2023-04-15T04:39:09;13.40;;;11.60;;
24335;SDS011;33098;52.400;16.880;2023-04-15T04:41:37;14.60;;;11.60;;
24335;SDS011;33098;52.400;16.880;2023-04-15T04:44:06;14.10;;;10.70;;
24335;SDS011;33098;52.400;16.880;2023-04-15T04:46:32;15.20;;;11.60;;
24335;SDS011;33098;52.400;16.880;2023-04-15T04:49:04;14.40;;;11.50;;
24335;SDS011;33098;52.400;16.880;2023-04-15T04:51:31;15.70;;;11.60;;
24335;SDS011;33098;52.400;16.880;2023-04-15T04:54:04;13.00;;;10.80;;
24335;SDS011;33098;52.400;16.880;2023-04-15T04:56:30;15.00;;;11.60;;
24335;SDS011;33098;52.400;16.880;2023-04-15T04:58:59;14.50;;;11.20;;
24335;SDS011;33098;52.400;16.880;2023-04-15T05:01:29;17.60;;;11.70;;
24335;SDS011;33098;52.400;16.880;2023-04-15T05:03:55;14.10;;;11.50;;
24335;SDS011;33098;52.400;16.880;2023-04-15T05:06:24;14.40;;;11.70;;
24335;SDS011;33098;52.400;16.880;2023-04-15T05:08:51;13.90;;;11.30;;
24335;SDS011;33098;52.400;16.880;2023-04-15T05:11:18;14.20;;;11.80;;
24335;SDS011;33098;52.400;16.880;2023-04-15T05:13:45;15.30;;;11.60;;
24335;SDS011;33098;52.400;16.880;2023-04-15T05:16:11;14.00;;;11.50;;
24335;SDS011;33098;52.400;16.880;2023-04-15T05:18:38;14.60;;;11.90;;
24335;SDS011;33098;52.400;16.880;2023-04-15T05:21:05;15.50;;;11.80;;
24335;SDS011;33098;52.400;16.880;2023-04-15T05:23:32;14.20;;;11.50;;
24335;SDS011;33098;52.400;16.880;2023-04-15T05:25:59;14.90;;;11.80;;
24335;SDS011;33098;52.400;16.880;2023-04-15T05:28:26;14.20;;;11.90;;
24335;SDS011;33098;52.400;16.880;2023-04-15T05:30:53;13.70;;;11.60;;
24335;SDS011;33098;52.400;16.880;2023-04-15T05:33:20;13.90;;;11.40;;
24335;SDS011;33098;52.400;16.880;2023-04-15T05:35:46;14.60;;;12.10;;
24335;SDS011;33098;52.400;16.880;2023-04-15T05:38:15;18.00;;;11.40;;
24335;SDS011;33098;52.400;16.880;2023-04-15T05:40:49;14.20;;;11.20;;
24335;SDS011;33098;52.400;16.880;2023-04-15T05:43:19;14.60;;;11.30;;
24335;SDS011;33098;52.400;16.880;2023-04-15T05:45:45;17.30;;;11.50;;
24335;SDS011;33098;52.400;16.880;2023-04-15T05:48:12;13.60;;;11.30;;
24335;SDS011;33098;52.400;16.880;2023-04-15T05:50:40;14.80;;;11.40;;
24335;SDS011;33098;52.400;16.880;2023-04-15T05:53:08;12.30;;;10.70;;
24335;SDS011;33098;52.400;16.880;2023-04-15T05:55:35;13.60;;;11.00;;
24335;SDS011;33098;52.400;16.880;2023-04-15T05:58:01;15.00;;;11.10;;
24335;SDS011;33098;52.400;16.880;2023-04-15T06:00:28;13.30;;;10.90;;
24335;SDS011;33098;52.400;16.880;2023-04-15T06:02:56;15.60;;;10.60;;
24335;SDS011;33098;52.400;16.880;2023-04-15T06:05:24;14.80;;;11.10;;
24335;SDS011;33098;52.400;16.880;2023-04-15T06:07:50;13.20;;;10.90;;
24335;SDS011;33098;52.400;16.880;2023-04-15T06:10:17;13.30;;;10.60;;
24335;SDS011;33098;52.400;16.880;2023-04-15T06:12:44;15.30;;;10.80;;
24335;SDS011;33098;52.400;16.880;2023-04-15T06:15:11;12.60;;;10.90;;
24335;SDS011;33098;52.400;16.880;2023-04-15T06:17:38;12.60;;;10.10;;
24335;SDS011;33098;52.400;16.880;2023-04-15T06:20:05;13.60;;;10.70;;
24335;SDS011;33098;52.400;16.880;2023-04-15T06:22:33;13.30;;;10.70;;
24335;SDS011;33098;52.400;16.880;2023-04-15T06:25:04;12.10;;;10.60;;
24335;SDS011;33098;52.400;16.880;2023-04-15T06:27:33;12.10;;;10.80;;
24335;SDS011;33098;52.400;16.880;2023-04-15T06:30:00;16.60;;;10.40;;
24335;SDS011;33098;52.400;16.880;2023-04-15T06:32:27;13.20;;;10.20;;
24335;SDS011;33098;52.400;16.880;2023-04-15T06:34:54;12.70;;;10.20;;
24335;SDS011;33098;52.400;16.880;2023-04-15T06:37:23;12.60;;;10.40;;
24335;SDS011;33098;52.400;16.880;2023-04-15T06:39:49;11.30;;;10.00;;
24335;SDS011;33098;52.400;16.880;2023-04-15T06:42:16;12.80;;;9.90;;
24335;SDS011;33098;52.400;16.880;2023-04-15T06:44:46;12.70;;;10.20;;
24335;SDS011;33098;52.400;16.880;2023-04-15T06:47:13;11.20;;;9.80;;
24335;SDS011;33098;52.400;16.880;2023-04-15T06:49:40;11.50;;;9.70;;
24335;SDS011;33098;52.400;16.880;2023-04-15T06:52:09;11.60;;;9.40;;
24335;SDS011;33098;52.400;16.880;2023-04-15T06:54:36;11.20;;;9.20;;
24335;SDS011;33098;52.400;16.880;2023-04-15T06:57:04;10.90;;;8.90;;
24335;SDS011;33098;52.400;16.880;2023-04-15T06:59:34;11.60;;;9.30;;
24335;SDS011;33098;52.400;16.880;2023-04-15T07:02:01;13.30;;;9.60;;
24335;SDS011;33098;52.400;16.880;2023-04-15T07:04:28;13.80;;;9.40;;
24335;SDS011;33098;52.400;16.880;2023-04-15T07:06:57;11.60;;;9.00;;
24335;SDS011;33098;52.400;16.880;2023-04-15T07:09:25;14.30;;;9.60;;
24335;SDS011;33098;52.400;16.880;2023-04-15T07:11:52;10.40;;;8.60;;
24335;SDS011;33098;52.400;16.880;2023-04-15T07:14:19;10.60;;;8.30;;
24335;SDS011;33098;52.400;16.880;2023-04-15T07:16:51;10.60;;;9.30;;
24335;SDS011;33098;52.400;16.880;2023-04-15T07:19:18;10.60;;;9.30;;
24335;SDS011;33098;52.400;16.880;2023-04-15T07:21:47;10.80;;;8.80;;
24335;SDS011;33098;52.400;16.880;2023-04-15T07:24:13;11.00;;;8.40;;
24335;SDS011;33098;52.400;16.880;2023-04-15T07:26:43;11.80;;;8.80;;
24335;SDS011;33098;52.400;16.880;2023-04-15T07:29:13;11.90;;;8.80;;
24335;SDS011;33098;52.400;16.880;2023-04-15T07:31:40;11.80;;;9.10;;
24335;SDS011;33098;52.400;16.880;2023-04-15T07:34:07;11.00;;;9.30;;
24335;SDS011;33098;52.400;16.880;2023-04-15T07:36:34;12.80;;;9.50;;
24335;SDS011;33098;52.400;16.880;2023-04-15T07:39:02;10.90;;;9.10;;
24335;SDS011;33098;52.400;16.880;2023-04-15T07:41:29;9.90;;;8.80;;
24335;SDS011;33098;52.400;16.880;2023-04-15T07:43:57;12.50;;;9.60;;
24335;SDS011;33098;52.400;16.880;2023-04-15T07:46:24;12.40;;;9.40;;
24335;SDS011;33098;52.400;16.880;2023-04-15T07:48:52;9.90;;;8.80;;
24335;SDS011;33098;52.400;16.880;2023-04-15T07:51:19;9.70;;;8.70;;
24335;SDS011;33098;52.400;16.880;2023-04-15T07:53:46;11.20;;;9.10;;
24335;SDS011;33098;52.400;16.880;2023-04-15T07:56:16;10.60;;;8.20;;
24335;SDS011;33098;52.400;16.880;2023-04-15T07:58:43;10.00;;;8.60;;
24335;SDS011;33098;52.400;16.880;2023-04-15T08:01:10;10.20;;;8.80;;
24335;SDS011;33098;52.400;16.880;2023-04-15T08:03:40;12.00;;;8.70;;
24335;SDS011;33098;52.400;16.880;2023-04-15T08:06:10;9.50;;;7.80;;
24335;SDS011;33098;52.400;16.880;2023-04-15T08:08:36;9.10;;;8.10;;
24335;SDS011;33098;52.400;16.880;2023-04-15T08:11:03;10.90;;;8.40;;
24335;SDS011;33098;52.400;16.880;2023-04-15T08:13:32;10.80;;;8.20;;
24335;SDS011;33098;52.400;16.880;2023-04-15T08:19:01;10.30;;;8.40;;
24335;SDS011;33098;52.400;16.880;2023-04-15T08:21:28;11.30;;;8.00;;
24335;SDS011;33098;52.400;16.880;2023-04-15T08:23:56;9.90;;;8.20;;
24335;SDS011;33098;52.400;16.880;2023-04-15T08:26:23;10.40;;;8.00;;
24335;SDS011;33098;52.400;16.880;2023-04-15T08:28:50;10.50;;;7.90;;
24335;SDS011;33098;52.400;16.880;2023-04-15T08:31:19;11.00;;;8.20;;
24335;SDS011;33098;52.400;16.880;2023-04-15T08:33:50;10.00;;;8.70;;
24335;SDS011;33098;52.400;16.880;2023-04-15T08:36:18;11.40;;;8.30;;
24335;SDS011;33098;52.400;16.880;2023-04-15T08:38:45;11.10;;;8.70;;
24335;SDS011;33098;52.400;16.880;2023-04-15T08:41:24;10.60;;;8.80;;
24335;SDS011;33098;52.400;16.880;2023-04-15T08:44:02;10.70;;;9.10;;
24335;SDS011;33098;52.400;16.880;2023-04-15T08:46:32;9.10;;;7.80;;
24335;SDS011;33098;52.400;16.880;2023-04-15T08:49:03;9.70;;;8.10;;
24335;SDS011;33098;52.400;16.880;2023-04-15T08:51:48;10.20;;;9.10;;
24335;SDS011;33098;52.400;16.880;2023-04-15T08:54:18;11.30;;;9.20;;
24335;SDS011;33098;52.400;16.880;2023-04-15T08:56:45;12.10;;;9.50;;
24335;SDS011;33098;52.400;16.880;2023-04-15T08:59:13;10.80;;;9.20;;
24335;SDS011;33098;52.400;16.880;2023-04-15T09:01:42;12.00;;;9.30;;
24335;SDS011;33098;52.400;16.880;2023-04-15T09:04:09;11.90;;;9.60;;
24335;SDS011;33098;52.400;16.880;2023-04-15T09:06:38;11.60;;;9.50;;
24335;SDS011;33098;52.400;16.880;2023-04-15T09:09:06;11.70;;;9.80;;
24335;SDS011;33098;52.400;16.880;2023-04-15T09:11:36;12.00;;;9.40;;
24335;SDS011;33098;52.400;16.880;2023-04-15T09:14:03;11.40;;;10.20;;
24335;SDS011;33098;52.400;16.880;2023-04-15T09:19:26;11.20;;;9.50;;
24335;SDS011;33098;52.400;16.880;2023-04-15T09:21:53;14.50;;;9.70;;
24335;SDS011;33098;52.400;16.880;2023-04-15T09:24:24;10.00;;;9.00;;
24335;SDS011;33098;52.400;16.880;2023-04-15T09:26:59;12.20;;;9.20;;
24335;SDS011;33098;52.400;16.880;2023-04-15T09:29:31;9.80;;;8.80;;
24335;SDS011;33098;52.400;16.880;2023-04-15T09:32:13;12.10;;;8.80;;
24335;SDS011;33098;52.400;16.880;2023-04-15T09:34:44;11.40;;;8.80;;
24335;SDS011;33098;52.400;16.880;2023-04-15T09:37:13;10.70;;;9.20;;
24335;SDS011;33098;52.400;16.880;2023-04-15T09:39:50;9.80;;;8.80;;
24335;SDS011;33098;52.400;16.880;2023-04-15T09:42:17;10.30;;;9.00;;
24335;SDS011;33098;52.400;16.880;2023-04-15T09:44:50;10.60;;;9.20;;
24335;SDS011;33098;52.400;16.880;2023-04-15T09:47:33;11.00;;;8.60;;
24335;SDS011;33098;52.400;16.880;2023-04-15T09:49:59;9.80;;;8.80;;
24335;SDS011;33098;52.400;16.880;2023-04-15T09:52:40;10.50;;;9.00;;
24335;SDS011;33098;52.400;16.880;2023-04-15T09:55:08;8.20;;;6.80;;
24335;SDS011;33098;52.400;16.880;2023-04-15T09:57:43;7.60;;;5.70;;
24335;SDS011;33098;52.400;16.880;2023-04-15T10:00:13;9.40;;;5.60;;
24335;SDS011;33098;52.400;16.880;2023-04-15T10:02:43;9.00;;;5.20;;
24335;SDS011;33098;52.400;16.880;2023-04-15T10:05:13;7.60;;;4.90;;
24335;SDS011;33098;52.400;16.880;2023-04-15T10:07:42;9.40;;;5.70;;
24335;SDS011;33098;52.400;16.880;2023-04-15T10:10:19;11.60;;;6.20;;
24335;SDS011;33098;52.400;16.880;2023-04-15T10:12:46;10.90;;;6.10;;
24335;SDS011;33098;52.400;16.880;2023-04-15T10:15:15;7.10;;;4.90;;
24335;SDS011;33098;52.400;16.880;2023-04-15T10:17:45;11.60;;;5.80;;
24335;SDS011;33098;52.400;16.880;2023-04-15T10:20:15;10.70;;;6.10;;
24335;SDS011;33098;52.400;16.880;2023-04-15T10:22:44;11.50;;;6.30;;
24335;SDS011;33098;52.400;16.880;2023-04-15T10:25:14;10.40;;;6.40;;
24335;SDS011;33098;52.400;16.880;2023-04-15T10:27:44;11.80;;;6.50;;
24335;SDS011;33098;52.400;16.880;2023-04-15T10:30:14;9.20;;;6.30;;
24335;SDS011;33098;52.400;16.880;2023-04-15T10:32:41;10.70;;;6.90;;
24335;SDS011;33098;52.400;16.880;2023-04-15T10:35:11;11.00;;;6.60;;
24335;SDS011;33098;52.400;16.880;2023-04-15T10:37:38;10.60;;;6.80;;
24335;SDS011;33098;52.400;16.880;2023-04-15T10:40:24;10.00;;;6.30;;
24335;SDS011;33098;52.400;16.880;2023-04-15T10:42:56;10.20;;;6.80;;
24335;SDS011;33098;52.400;16.880;2023-04-15T10:45:27;11.50;;;6.90;;
24335;SDS011;33098;52.400;16.880;2023-04-15T10:48:00;9.30;;;6.70;;
24335;SDS011;33098;52.400;16.880;2023-04-15T10:52:57;9.80;;;7.60;;
24335;SDS011;33098;52.400;16.880;2023-04-15T10:55:25;10.50;;;7.60;;
24335;SDS011;33098;52.400;16.880;2023-04-15T10:57:56;9.10;;;6.20;;
24335;SDS011;33098;52.400;16.880;2023-04-15T11:00:30;6.90;;;5.10;;
24335;SDS011;33098;52.400;16.880;2023-04-15T11:08:10;7.40;;;5.60;;
24335;SDS011;33098;52.400;16.880;2023-04-15T11:13:14;8.20;;;6.10;;
24335;SDS011;33098;52.400;16.880;2023-04-15T11:15:46;8.60;;;6.00;;
24335;SDS011;33098;52.400;16.880;2023-04-15T11:18:20;7.20;;;4.80;;
24335;SDS011;33098;52.400;16.880;2023-04-15T11:20:49;7.80;;;5.00;;
24335;SDS011;33098;52.400;16.880;2023-04-15T11:25:54;6.30;;;5.00;;
24335;SDS011;33098;52.400;16.880;2023-04-15T11:28:26;5.50;;;4.20;;
24335;SDS011;33098;52.400;16.880;2023-04-15T11:30:54;7.60;;;4.00;;
24335;SDS011;33098;52.400;16.880;2023-04-15T11:33:31;4.90;;;3.70;;
24335;SDS011;33098;52.400;16.880;2023-04-15T11:35:58;4.90;;;4.10;;
24335;SDS011;33098;52.400;16.880;2023-04-15T11:38:24;4.90;;;3.70;;
24335;SDS011;33098;52.400;16.880;2023-04-15T11:40:51;4.70;;;3.40;;
24335;SDS011;33098;52.400;16.880;2023-04-15T11:43:19;7.30;;;4.50;;
24335;SDS011;33098;52.400;16.880;2023-04-15T11:48:25;4.70;;;4.00;;
24335;SDS011;33098;52.400;16.880;2023-04-15T11:51:04;5.70;;;4.10;;
24335;SDS011;33098;52.400;16.880;2023-04-15T11:56:04;7.00;;;5.10;;
24335;SDS011;33098;52.400;16.880;2023-04-15T11:58:36;7.10;;;5.00;;
24335;SDS011;33098;52.400;16.880;2023-04-15T12:01:08;6.20;;;4.60;;
24335;SDS011;33098;52.400;16.880;2023-04-15T12:03:36;5.30;;;4.50;;
24335;SDS011;33098;52.400;16.880;2023-04-15T12:06:18;6.70;;;4.70;;
24335;SDS011;33098;52.400;16.880;2023-04-15T12:09:00;9.10;;;5.10;;
24335;SDS011;33098;52.400;16.880;2023-04-15T12:11:49;6.40;;;5.10;;
24335;SDS011;33098;52.400;16.880;2023-04-15T12:14:19;5.40;;;3.80;;
24335;SDS011;33098;52.400;16.880;2023-04-15T12:17:00;4.80;;;3.70;;
24335;SDS011;33098;52.400;16.880;2023-04-15T12:19:29;5.20;;;3.40;;
24335;SDS011;33098;52.400;16.880;2023-04-15T12:22:01;5.00;;;3.80;;
24335;SDS011;33098;52.400;16.880;2023-04-15T12:24:32;5.40;;;3.60;;
24335;SDS011;33098;52.400;16.880;2023-04-15T12:29:33;5.20;;;3.60;;
24335;SDS011;33098;52.400;16.880;2023-04-15T12:32:11;4.50;;;4.10;;
24335;SDS011;33098;52.400;16.880;2023-04-15T12:34:43;7.90;;;4.40;;
24335;SDS011;33098;52.400;16.880;2023-04-15T12:37:15;4.80;;;3.90;;
24335;SDS011;33098;52.400;16.880;2023-04-15T12:39:43;4.80;;;4.10;;
24335;SDS011;33098;52.400;16.880;2023-04-15T12:42:11;5.50;;;4.20;;
24335;SDS011;33098;52.400;16.880;2023-04-15T12:44:39;5.90;;;4.10;;
24335;SDS011;33098;52.400;16.880;2023-04-15T12:47:08;5.10;;;4.60;;
24335;SDS011;33098;52.400;16.880;2023-04-15T12:49:36;5.50;;;4.80;;
24335;SDS011;33098;52.400;16.880;2023-04-15T12:52:03;5.90;;;4.90;;
24335;SDS011;33098;52.400;16.880;2023-04-15T12:54:30;5.50;;;4.70;;
24335;SDS011;33098;52.400;16.880;2023-04-15T12:56:57;5.50;;;4.70;;
24335;SDS011;33098;52.400;16.880;2023-04-15T12:59:26;7.70;;;5.20;;
24335;SDS011;33098;52.400;16.880;2023-04-15T13:01:53;5.60;;;4.90;;
24335;SDS011;33098;52.400;16.880;2023-04-15T13:04:23;6.10;;;4.70;;
24335;SDS011;33098;52.400;16.880;2023-04-15T13:06:50;7.00;;;5.40;;
24335;SDS011;33098;52.400;16.880;2023-04-15T13:09:17;8.00;;;5.80;;
24335;SDS011;33098;52.400;16.880;2023-04-15T13:11:44;8.60;;;5.90;;
24335;SDS011;33098;52.400;16.880;2023-04-15T13:14:10;7.50;;;5.70;;
24335;SDS011;33098;52.400;16.880;2023-04-15T13:16:38;8.70;;;5.80;;
24335;SDS011;33098;52.400;16.880;2023-04-15T13:19:08;9.20;;;6.20;;
24335;SDS011;33098;52.400;16.880;2023-04-15T13:21:37;7.20;;;6.20;;
24335;SDS011;33098;52.400;16.880;2023-04-15T13:24:04;8.40;;;6.30;;
24335;SDS011;33098;52.400;16.880;2023-04-15T13:26:32;8.80;;;6.70;;
24335;SDS011;33098;52.400;16.880;2023-04-15T13:29:00;8.60;;;6.40;;
24335;SDS011;33098;52.400;16.880;2023-04-15T13:31:27;8.50;;;6.60;;
24335;SDS011;33098;52.400;16.880;2023-04-15T13:33:55;8.30;;;6.40;;
24335;SDS011;33098;52.400;16.880;2023-04-15T13:36:22;7.90;;;6.40;;
24335;SDS011;33098;52.400;16.880;2023-04-15T13:38:50;8.00;;;7.00;;
24335;SDS011;33098;52.400;16.880;2023-04-15T13:41:17;8.50;;;7.40;;
24335;SDS011;33098;52.400;16.880;2023-04-15T13:43:45;9.70;;;7.30;;
24335;SDS011;33098;52.400;16.880;2023-04-15T13:46:12;10.10;;;7.80;;
24335;SDS011;33098;52.400;16.880;2023-04-15T13:48:40;10.40;;;9.10;;
24335;SDS011;33098;52.400;16.880;2023-04-15T13:51:08;10.20;;;8.30;;
24335;SDS011;33098;52.400;16.880;2023-04-15T13:53:35;7.90;;;7.10;;
24335;SDS011;33098;52.400;16.880;2023-04-15T13:56:02;8.10;;;6.10;;
24335;SDS011;33098;52.400;16.880;2023-04-15T13:58:29;7.30;;;6.50;;
24335;SDS011;33098;52.400;16.880;2023-04-15T14:00:59;8.90;;;7.00;;
24335;SDS011;33098;52.400;16.880;2023-04-15T14:03:26;7.80;;;6.70;;
24335;SDS011;33098;52.400;16.880;2023-04-15T14:05:53;7.20;;;6.40;;
24335;SDS011;33098;52.400;16.880;2023-04-15T14:08:21;17.50;;;11.70;;
24335;SDS011;33098;52.400;16.880;2023-04-15T14:10:51;10.50;;;7.00;;
24335;SDS011;33098;52.400;16.880;2023-04-15T14:13:18;9.80;;;7.40;;
24335;SDS011;33098;52.400;16.880;2023-04-15T14:15:51;7.70;;;6.70;;
24335;SDS011;33098;52.400;16.880;2023-04-15T14:18:19;8.20;;;7.20;;
24335;SDS011;33098;52.400;16.880;2023-04-15T14:20:46;7.40;;;6.30;;
24335;SDS011;33098;52.400;16.880;2023-04-15T14:23:13;7.80;;;6.60;;
24335;SDS011;33098;52.400;16.880;2023-04-15T14:25:41;8.60;;;6.70;;
24335;SDS011;33098;52.400;16.880;2023-04-15T14:28:08;8.00;;;6.70;;
24335;SDS011;33098;52.400;16.880;2023-04-15T14:30:36;7.00;;;6.00;;
24335;SDS011;33098;52.400;16.880;2023-04-15T14:33:03;9.50;;;6.60;;
24335;SDS011;33098;52.400;16.880;2023-04-15T14:35:30;7.40;;;6.70;;
24335;SDS011;33098;52.400;16.880;2023-04-15T14:37:59;9.30;;;7.50;;
24335;SDS011;33098;52.400;16.880;2023-04-15T14:40:26;8.20;;;7.30;;
24335;SDS011;33098;52.400;16.880;2023-04-15T14:42:55;10.40;;;7.20;;
24335;SDS011;33098;52.400;16.880;2023-04-15T14:45:24;8.30;;;7.20;;
24335;SDS011;33098;52.400;16.880;2023-04-15T14:47:51;8.10;;;7.20;;
24335;SDS011;33098;52.400;16.880;2023-04-15T14:50:19;8.00;;;7.20;;
24335;SDS011;33098;52.400;16.880;2023-04-15T14:52:47;10.80;;;8.00;;
24335;SDS011;33098;52.400;16.880;2023-04-15T14:55:17;8.00;;;7.20;;
24335;SDS011;33098;52.400;16.880;2023-04-15T14:57:44;8.20;;;6.90;;
24335;SDS011;33098;52.400;16.880;2023-04-15T15:00:11;7.80;;;6.80;;